sensor_id;sensor_type;location;lat;lon;timestamp;pressure;altitude;pressure_sealevel;temperature;humidity
70072;BME280;57434;42.794;23.302;2022-12-18T00:00:13;96434.56;;;4.61;94.83
70072;BME280;57434;42.794;23.302;2022-12-18T00:01:23;96253.78;;;3.38;94.81
70072;BME280;57434;42.794;23.302;2022-12-18T00:02:26;96405.22;;;4.44;94.97
70072;BME280;57434;42.794;23.302;2022-12-18T00:03:28;96436.28;;;4.55;95.19
70072;BME280;57434;42.794;23.302;2022-12-18T00:04:30;96371.16;;;4.07;95.08
70072;BME280;57434;42.794;23.302;2022-12-18T00:05:32;96441.78;;;4.42;94.75
70072;BME280;57434;42.794;23.302;2022-12-18T00:06:35;96393.38;;;4.24;94.23
70072;BME280;57434;42.794;23.302;2022-12-18T00:07:37;96435.34;;;4.46;94.18
70072;BME280;57434;42.794;23.302;2022-12-18T00:08:40;96335.81;;;3.75;94.34
70072;BME280;57434;42.794;23.302;2022-12-18T00:09:43;96388.88;;;4.14;94.53
70072;BME280;57434;42.794;23.302;2022-12-18T00:10:45;96420.50;;;4.36;93.94
70072;BME280;57434;42.794;23.302;2022-12-18T00:11:47;96437.44;;;4.41;93.62
70072;BME280;57434;42.794;23.302;2022-12-18T00:12:49;96383.66;;;4.16;93.51
70072;BME280;57434;42.794;23.302;2022-12-18T00:13:51;96421.44;;;4.29;93.25
70072;BME280;57434;42.794;23.302;2022-12-18T00:14:54;96409.88;;;4.15;92.83
70072;BME280;57434;42.794;23.302;2022-12-18T00:16:01;96430.03;;;4.35;92.94
70072;BME280;57434;42.794;23.302;2022-12-18T00:17:04;96429.69;;;4.33;92.81
70072;BME280;57434;42.794;23.302;2022-12-18T00:18:06;96404.91;;;4.06;92.73
70072;BME280;57434;42.794;23.302;2022-12-18T00:19:08;96463.47;;;4.48;92.89
70072;BME280;57434;42.794;23.302;2022-12-18T00:20:11;96463.13;;;4.46;92.74
70072;BME280;57434;42.794;23.302;2022-12-18T00:21:14;96464.69;;;4.47;92.74
70072;BME280;57434;42.794;23.302;2022-12-18T00:22:15;96460.44;;;4.42;92.79
70072;BME280;57434;42.794;23.302;2022-12-18T00:23:17;96466.34;;;4.44;93.01
70072;BME280;57434;42.794;23.302;2022-12-18T00:24:19;96481.25;;;4.34;93.32
70072;BME280;57434;42.794;23.302;2022-12-18T00:25:21;96374.06;;;3.84;93.09
70072;BME280;57434;42.794;23.302;2022-12-18T00:26:27;96468.72;;;4.26;93.05
70072;BME280;57434;42.794;23.302;2022-12-18T00:27:29;96361.47;;;3.63;92.94
70072;BME280;57434;42.794;23.302;2022-12-18T00:28:31;96340.34;;;3.50;92.91
70072;BME280;57434;42.794;23.302;2022-12-18T00:29:33;96456.06;;;4.25;92.97
70072;BME280;57434;42.794;23.302;2022-12-18T00:30:34;96475.69;;;4.34;92.85
70072;BME280;57434;42.794;23.302;2022-12-18T00:31:37;96475.19;;;4.39;92.68
70072;BME280;57434;42.794;23.302;2022-12-18T00:32:40;96500.47;;;4.44;92.48
70072;BME280;57434;42.794;23.302;2022-12-18T00:33:41;96481.75;;;4.29;92.51
70072;BME280;57434;42.794;23.302;2022-12-18T00:34:44;96442.16;;;4.08;92.42
70072;BME280;57434;42.794;23.302;2022-12-18T00:35:45;96468.72;;;4.26;92.78
70072;BME280;57434;42.794;23.302;2022-12-18T00:36:47;96390.16;;;3.73;92.76
70072;BME280;57434;42.794;23.302;2022-12-18T00:37:49;96334.69;;;3.37;92.32
70072;BME280;57434;42.794;23.302;2022-12-18T00:38:53;96351.16;;;3.44;92.38
70072;BME280;57434;42.794;23.302;2022-12-18T00:39:55;96487.66;;;4.31;92.60
70072;BME280;57434;42.794;23.302;2022-12-18T00:40:56;96466.56;;;4.17;93.10
70072;BME280;57434;42.794;23.302;2022-12-18T00:41:58;96473.56;;;4.22;93.13
70072;BME280;57434;42.794;23.302;2022-12-18T00:43:00;96445.06;;;4.01;93.27
70072;BME280;57434;42.794;23.302;2022-12-18T00:44:02;96419.63;;;3.87;92.88
70072;BME280;57434;42.794;23.302;2022-12-18T00:45:05;96470.38;;;4.23;93.28
70072;BME280;57434;42.794;23.302;2022-12-18T00:46:13;96437.59;;;3.98;93.30
70072;BME280;57434;42.794;23.302;2022-12-18T00:47:14;96459.16;;;4.10;93.04
70072;BME280;57434;42.794;23.302;2022-12-18T00:48:16;96521.00;;;4.31;92.89
70072;BME280;57434;42.794;23.302;2022-12-18T00:49:19;96394.59;;;3.70;92.56
70072;BME280;57434;42.794;23.302;2022-12-18T00:50:23;96491.81;;;4.23;92.91
70072;BME280;57434;42.794;23.302;2022-12-18T00:51:25;96401.41;;;3.66;92.73
70072;BME280;57434;42.794;23.302;2022-12-18T00:52:27;96498.25;;;4.20;92.50
70072;BME280;57434;42.794;23.302;2022-12-18T00:53:29;96488.84;;;4.14;93.02
70072;BME280;57434;42.794;23.302;2022-12-18T00:54:31;96479.88;;;4.06;93.07
70072;BME280;57434;42.794;23.302;2022-12-18T00:55:32;96496.31;;;4.17;93.32
70072;BME280;57434;42.794;23.302;2022-12-18T00:56:36;96495.78;;;4.22;93.29
70072;BME280;57434;42.794;23.302;2022-12-18T00:57:51;96432.50;;;3.77;93.28
70072;BME280;57434;42.794;23.302;2022-12-18T00:58:53;96383.66;;;3.43;93.41
70072;BME280;57434;42.794;23.302;2022-12-18T00:59:55;96482.16;;;4.11;93.59
70072;BME280;57434;42.794;23.302;2022-12-18T01:00:57;96460.06;;;3.88;93.82
70072;BME280;57434;42.794;23.302;2022-12-18T01:01:58;96491.91;;;3.99;93.82
70072;BME280;57434;42.794;23.302;2022-12-18T01:03:00;96506.22;;;4.18;93.74
70072;BME280;57434;42.794;23.302;2022-12-18T01:04:03;96471.78;;;3.95;93.79
70072;BME280;57434;42.794;23.302;2022-12-18T01:05:05;96504.56;;;4.20;93.12
70072;BME280;57434;42.794;23.302;2022-12-18T01:06:10;96503.53;;;3.94;92.71
70072;BME280;57434;42.794;23.302;2022-12-18T01:07:12;96449.53;;;3.79;92.62
70072;BME280;57434;42.794;23.302;2022-12-18T01:08:14;96389.63;;;3.42;92.44
70072;BME280;57434;42.794;23.302;2022-12-18T01:09:15;96510.22;;;4.17;92.67
70072;BME280;57434;42.794;23.302;2022-12-18T01:10:17;96513.41;;;4.15;92.38
70072;BME280;57434;42.794;23.302;2022-12-18T01:11:20;96513.13;;;4.09;92.56
70072;BME280;57434;42.794;23.302;2022-12-18T01:12:22;96484.78;;;3.98;92.42
70072;BME280;57434;42.794;23.302;2022-12-18T01:13:24;96513.41;;;4.15;92.49
70072;BME280;57434;42.794;23.302;2022-12-18T01:14:26;96518.19;;;4.15;92.47
70072;BME280;57434;42.794;23.302;2022-12-18T01:15:27;96500.88;;;4.07;92.44
70072;BME280;57434;42.794;23.302;2022-12-18T01:16:29;96511.94;;;4.10;92.35
70072;BME280;57434;42.794;23.302;2022-12-18T01:17:31;96531.34;;;4.10;92.25
70072;BME280;57434;42.794;23.302;2022-12-18T01:18:33;96486.69;;;3.85;92.08
70072;BME280;57434;42.794;23.302;2022-12-18T01:19:35;96398.47;;;3.37;91.94
70072;BME280;57434;42.794;23.302;2022-12-18T01:20:37;96517.97;;;4.05;91.78
70072;BME280;57434;42.794;23.302;2022-12-18T01:21:39;96482.78;;;3.63;91.93
70072;BME280;57434;42.794;23.302;2022-12-18T01:22:41;96516.06;;;4.02;91.84
70072;BME280;57434;42.794;23.302;2022-12-18T01:23:43;96456.59;;;3.64;91.74
70072;BME280;57434;42.794;23.302;2022-12-18T01:24:45;96509.06;;;3.94;91.77
70072;BME280;57434;42.794;23.302;2022-12-18T01:25:46;96507.66;;;3.86;91.81
70072;BME280;57434;42.794;23.302;2022-12-18T01:26:48;96462.28;;;3.57;91.80
70072;BME280;57434;42.794;23.302;2022-12-18T01:27:50;96521.75;;;3.95;91.69
70072;BME280;57434;42.794;23.302;2022-12-18T01:28:54;96497.63;;;3.53;91.67
70072;BME280;57434;42.794;23.302;2022-12-18T01:29:55;96463.91;;;3.54;91.42
70072;BME280;57434;42.794;23.302;2022-12-18T01:30:57;96517.34;;;3.78;91.26
70072;BME280;57434;42.794;23.302;2022-12-18T01:31:59;96434.38;;;3.24;91.04
70072;BME280;57434;42.794;23.302;2022-12-18T01:33:01;96436.66;;;3.29;91.36
70072;BME280;57434;42.794;23.302;2022-12-18T01:34:04;96314.38;;;2.41;91.14
70072;BME280;57434;42.794;23.302;2022-12-18T01:35:06;96527.09;;;3.86;91.47
70072;BME280;57434;42.794;23.302;2022-12-18T01:36:21;96526.75;;;3.84;91.41
70072;BME280;57434;42.794;23.302;2022-12-18T01:37:23;96526.38;;;3.82;91.38
70072;BME280;57434;42.794;23.302;2022-12-18T01:38:25;96564.22;;;3.72;91.42
70072;BME280;57434;42.794;23.302;2022-12-18T01:39:27;96459.56;;;3.33;91.37
70072;BME280;57434;42.794;23.302;2022-12-18T01:40:29;96493.41;;;3.45;91.41
70072;BME280;57434;42.794;23.302;2022-12-18T01:41:32;96523.75;;;3.75;91.58
70072;BME280;57434;42.794;23.302;2022-12-18T01:42:34;96529.22;;;3.79;91.55
70072;BME280;57434;42.794;23.302;2022-12-18T01:43:52;96389.63;;;2.83;91.54
70072;BME280;57434;42.794;23.302;2022-12-18T01:46:08;96514.06;;;3.63;91.62
70072;BME280;57434;42.794;23.302;2022-12-18T01:47:18;96483.31;;;3.34;91.68
70072;BME280;57434;42.794;23.302;2022-12-18T01:48:21;96546.44;;;3.70;91.61
70072;BME280;57434;42.794;23.302;2022-12-18T01:49:23;96538.81;;;3.74;91.66
70072;BME280;57434;42.794;23.302;2022-12-18T01:50:33;96347.97;;;2.20;91.47
70072;BME280;57434;42.794;23.302;2022-12-18T01:51:35;96539.47;;;3.82;91.41
70072;BME280;57434;42.794;23.302;2022-12-18T01:52:38;96536.28;;;3.83;91.34
70072;BME280;57434;42.794;23.302;2022-12-18T01:53:43;96376.72;;;2.72;91.00
70072;BME280;57434;42.794;23.302;2022-12-18T01:54:47;96505.03;;;3.59;90.88
70072;BME280;57434;42.794;23.302;2022-12-18T01:55:55;96541.75;;;3.87;90.86
70072;BME280;57434;42.794;23.302;2022-12-18T01:56:57;96479.97;;;3.43;90.59
70072;BME280;57434;42.794;23.302;2022-12-18T01:58:00;96546.97;;;3.85;90.56
70072;BME280;57434;42.794;23.302;2022-12-18T01:59:05;96552.56;;;3.81;90.40
70072;BME280;57434;42.794;23.302;2022-12-18T02:00:14;96378.47;;;2.63;90.25
70072;BME280;57434;42.794;23.302;2022-12-18T02:01:17;96551.56;;;3.71;90.56
70072;BME280;57434;42.794;23.302;2022-12-18T02:02:20;96462.94;;;3.21;90.43
70072;BME280;57434;42.794;23.302;2022-12-18T02:03:22;96522.47;;;3.60;90.20
70072;BME280;57434;42.794;23.302;2022-12-18T02:04:26;96419.88;;;2.93;90.14
70072;BME280;57434;42.794;23.302;2022-12-18T02:06:40;96539.84;;;3.64;90.08
70072;BME280;57434;42.794;23.302;2022-12-18T02:09:32;96555.06;;;3.75;89.98
70072;BME280;57434;42.794;23.302;2022-12-18T02:10:50;96569.00;;;3.72;89.93
70072;BME280;57434;42.794;23.302;2022-12-18T02:12:21;96428.41;;;2.83;89.91
70072;BME280;57434;42.794;23.302;2022-12-18T02:13:38;96533.19;;;3.58;90.23
70072;BME280;57434;42.794;23.302;2022-12-18T02:15:02;96561.03;;;3.74;90.19
70072;BME280;57434;42.794;23.302;2022-12-18T02:18:17;96466.47;;;3.02;89.82
70072;BME280;57434;42.794;23.302;2022-12-18T02:18:53;96542.38;;;3.55;90.03
70072;BME280;57434;42.794;23.302;2022-12-18T02:20:17;96554.13;;;3.62;89.65
70072;BME280;57434;42.794;23.302;2022-12-18T02:21:29;96580.69;;;3.63;89.33
70072;BME280;57434;42.794;23.302;2022-12-18T02:23:50;96572.00;;;3.61;89.72
70072;BME280;57434;42.794;23.302;2022-12-18T02:26:02;96566.50;;;3.58;89.98
70072;BME280;57434;42.794;23.302;2022-12-18T02:27:07;96528.53;;;3.31;89.72
70072;BME280;57434;42.794;23.302;2022-12-18T02:28:13;96542.75;;;3.33;89.56
70072;BME280;57434;42.794;23.302;2022-12-18T02:30:43;96552.09;;;3.43;89.30
70072;BME280;57434;42.794;23.302;2022-12-18T02:31:50;96569.81;;;3.49;89.53
70072;BME280;57434;42.794;23.302;2022-12-18T02:32:54;96389.31;;;2.30;89.69
70072;BME280;57434;42.794;23.302;2022-12-18T02:34:00;96450.91;;;2.61;89.65
70072;BME280;57434;42.794;23.302;2022-12-18T02:35:06;96535.88;;;3.18;89.78
70072;BME280;57434;42.794;23.302;2022-12-18T02:36:10;96377.41;;;2.06;89.58
70072;BME280;57434;42.794;23.302;2022-12-18T02:37:16;96456.81;;;2.40;89.60
70072;BME280;57434;42.794;23.302;2022-12-18T02:38:20;96515.22;;;2.99;89.48
70072;BME280;57434;42.794;23.302;2022-12-18T02:39:24;96587.41;;;3.39;89.52
70072;BME280;57434;42.794;23.302;2022-12-18T02:40:27;96542.28;;;3.15;89.71
70072;BME280;57434;42.794;23.302;2022-12-18T02:41:30;96502.09;;;2.80;89.73
70072;BME280;57434;42.794;23.302;2022-12-18T02:42:32;96577.19;;;3.36;89.79
70072;BME280;57434;42.794;23.302;2022-12-18T02:43:34;96550.59;;;3.15;89.75
70072;BME280;57434;42.794;23.302;2022-12-18T02:44:45;96569.84;;;3.26;89.87
70072;BME280;57434;42.794;23.302;2022-12-18T02:45:52;96580.41;;;3.34;89.91
70072;BME280;57434;42.794;23.302;2022-12-18T02:46:54;96561.69;;;3.15;89.51
70072;BME280;57434;42.794;23.302;2022-12-18T02:47:56;96602.91;;;3.13;89.56
70072;BME280;57434;42.794;23.302;2022-12-18T02:50:38;96585.75;;;3.22;89.68
70072;BME280;57434;42.794;23.302;2022-12-18T02:53:31;96590.44;;;3.25;89.73
70072;BME280;57434;42.794;23.302;2022-12-18T02:55:05;96583.91;;;3.12;89.75
70072;BME280;57434;42.794;23.302;2022-12-18T02:56:13;96592.81;;;3.26;90.12
70072;BME280;57434;42.794;23.302;2022-12-18T02:57:30;96442.78;;;2.27;89.74
70072;BME280;57434;42.794;23.302;2022-12-18T03:02:59;96608.81;;;3.15;89.86
70072;BME280;57434;42.794;23.302;2022-12-18T03:04:09;96573.28;;;3.10;89.95
70072;BME280;57434;42.794;23.302;2022-12-18T03:05:19;96588.63;;;3.15;89.58
70072;BME280;57434;42.794;23.302;2022-12-18T03:06:30;96579.81;;;2.96;89.73
70072;BME280;57434;42.794;23.302;2022-12-18T03:07:50;96592.25;;;2.85;89.53
70072;BME280;57434;42.794;23.302;2022-12-18T03:09:00;96474.75;;;2.28;89.67
70072;BME280;57434;42.794;23.302;2022-12-18T03:10:06;96448.31;;;2.00;89.53
70072;BME280;57434;42.794;23.302;2022-12-18T03:11:12;96543.34;;;2.74;89.91
70072;BME280;57434;42.794;23.302;2022-12-18T03:12:21;96592.00;;;3.02;89.72
70072;BME280;57434;42.794;23.302;2022-12-18T03:13:39;96460.34;;;2.14;89.98
70072;BME280;57434;42.794;23.302;2022-12-18T03:14:44;96590.47;;;2.98;89.78
70072;BME280;57434;42.794;23.302;2022-12-18T03:15:51;96595.72;;;2.92;89.55
70072;BME280;57434;42.794;23.302;2022-12-18T03:16:57;96558.41;;;2.73;89.54
70072;BME280;57434;42.794;23.302;2022-12-18T03:18:10;96584.22;;;2.94;89.48
70072;BME280;57434;42.794;23.302;2022-12-18T03:19:16;96588.22;;;2.89;89.32
70072;BME280;57434;42.794;23.302;2022-12-18T03:20:23;96590.22;;;2.89;89.18
70072;BME280;57434;42.794;23.302;2022-12-18T03:21:33;96591.41;;;2.88;89.40
70072;BME280;57434;42.794;23.302;2022-12-18T03:22:37;96482.13;;;2.12;89.35
70072;BME280;57434;42.794;23.302;2022-12-18T03:23:46;96559.69;;;2.65;89.12
70072;BME280;57434;42.794;23.302;2022-12-18T03:24:50;96595.88;;;2.82;89.12
70072;BME280;57434;42.794;23.302;2022-12-18T03:25:58;96582.91;;;2.75;89.14
70072;BME280;57434;42.794;23.302;2022-12-18T03:27:12;96591.66;;;2.73;89.05
70072;BME280;57434;42.794;23.302;2022-12-18T03:28:20;96588.97;;;2.66;88.92
70072;BME280;57434;42.794;23.302;2022-12-18T03:29:34;96599.53;;;2.75;89.20
70072;BME280;57434;42.794;23.302;2022-12-18T03:30:38;96631.47;;;2.83;89.27
70072;BME280;57434;42.794;23.302;2022-12-18T03:31:42;96613.66;;;2.84;89.09
70072;BME280;57434;42.794;23.302;2022-12-18T03:33:15;96605.31;;;2.57;89.06
70072;BME280;57434;42.794;23.302;2022-12-18T03:34:23;96505.13;;;2.09;88.86
70072;BME280;57434;42.794;23.302;2022-12-18T03:35:36;96604.84;;;2.62;89.00
70072;BME280;57434;42.794;23.302;2022-12-18T03:36:39;96628.69;;;2.83;89.12
70072;BME280;57434;42.794;23.302;2022-12-18T03:37:41;96517.00;;;2.05;89.11
70072;BME280;57434;42.794;23.302;2022-12-18T03:38:42;96591.13;;;2.55;89.26
70072;BME280;57434;42.794;23.302;2022-12-18T03:39:44;96664.84;;;2.76;89.32
70072;BME280;57434;42.794;23.302;2022-12-18T03:42:28;96627.66;;;2.73;89.31
70072;BME280;57434;42.794;23.302;2022-12-18T03:45:31;96647.34;;;2.83;89.35
70072;BME280;57434;42.794;23.302;2022-12-18T03:50:43;96651.97;;;2.89;88.64
70072;BME280;57434;42.794;23.302;2022-12-18T03:51:59;96659.09;;;2.90;88.44
70072;BME280;57434;42.794;23.302;2022-12-18T03:54:25;96518.22;;;2.04;88.02
70072;BME280;57434;42.794;23.302;2022-12-18T03:55:29;96633.25;;;2.70;88.10
70072;BME280;57434;42.794;23.302;2022-12-18T03:56:40;96546.88;;;2.21;87.85
70072;BME280;57434;42.794;23.302;2022-12-18T03:57:44;96645.31;;;2.83;88.01
70072;BME280;57434;42.794;23.302;2022-12-18T03:58:48;96650.94;;;2.80;87.81
70072;BME280;57434;42.794;23.302;2022-12-18T03:59:56;96596.38;;;2.46;87.89
70072;BME280;57434;42.794;23.302;2022-12-18T04:01:01;96658.69;;;2.92;87.65
70072;BME280;57434;42.794;23.302;2022-12-18T04:02:04;96664.22;;;2.92;87.86
70072;BME280;57434;42.794;23.302;2022-12-18T04:03:09;96637.22;;;2.69;88.07
70072;BME280;57434;42.794;23.302;2022-12-18T04:04:13;96657.31;;;2.77;88.10
70072;BME280;57434;42.794;23.302;2022-12-18T04:05:17;96621.59;;;2.55;88.28
70072;BME280;57434;42.794;23.302;2022-12-18T04:06:19;96663.09;;;2.59;88.03
70072;BME280;57434;42.794;23.302;2022-12-18T04:07:22;96676.97;;;2.86;88.16
70072;BME280;57434;42.794;23.302;2022-12-18T04:08:25;96680.13;;;2.88;88.25
70072;BME280;57434;42.794;23.302;2022-12-18T04:09:28;96658.25;;;2.66;88.22
70072;BME280;57434;42.794;23.302;2022-12-18T04:10:31;96669.84;;;2.85;88.03
70072;BME280;57434;42.794;23.302;2022-12-18T04:11:33;96670.22;;;2.87;88.21
70072;BME280;57434;42.794;23.302;2022-12-18T04:12:37;96676.97;;;2.86;87.94
70072;BME280;57434;42.794;23.302;2022-12-18T04:13:39;96638.44;;;2.68;88.12
70072;BME280;57434;42.794;23.302;2022-12-18T04:14:41;96580.78;;;2.29;88.18
70072;BME280;57434;42.794;23.302;2022-12-18T04:15:43;96667.09;;;2.85;87.92
70072;BME280;57434;42.794;23.302;2022-12-18T04:16:45;96637.34;;;2.58;88.09
70072;BME280;57434;42.794;23.302;2022-12-18T04:17:48;96680.38;;;2.70;88.09
70072;BME280;57434;42.794;23.302;2022-12-18T04:18:50;96670.22;;;2.87;88.38
70072;BME280;57434;42.794;23.302;2022-12-18T04:19:52;96590.72;;;2.26;87.96
70072;BME280;57434;42.794;23.302;2022-12-18T04:20:54;96668.72;;;2.82;87.93
70072;BME280;57434;42.794;23.302;2022-12-18T04:21:56;96467.91;;;1.49;87.88
70072;BME280;57434;42.794;23.302;2022-12-18T04:22:57;96472.91;;;1.61;88.03
70072;BME280;57434;42.794;23.302;2022-12-18T04:23:59;96673.41;;;2.85;88.01
70072;BME280;57434;42.794;23.302;2022-12-18T04:25:01;96690.47;;;2.84;87.97
70072;BME280;57434;42.794;23.302;2022-12-18T04:26:03;96672.84;;;2.70;87.71
70072;BME280;57434;42.794;23.302;2022-12-18T04:27:06;96681.34;;;2.83;87.69
70072;BME280;57434;42.794;23.302;2022-12-18T04:28:08;96660.19;;;2.69;87.77
70072;BME280;57434;42.794;23.302;2022-12-18T04:29:09;96680.28;;;2.77;87.92
70072;BME280;57434;42.794;23.302;2022-12-18T04:30:11;96678.72;;;2.76;88.09
70072;BME280;57434;42.794;23.302;2022-12-18T04:31:13;96503.34;;;1.61;88.14
70072;BME280;57434;42.794;23.302;2022-12-18T04:32:15;96658.06;;;2.50;88.32
70072;BME280;57434;42.794;23.302;2022-12-18T04:33:17;96637.16;;;2.46;88.00
70072;BME280;57434;42.794;23.302;2022-12-18T04:34:20;96690.56;;;2.77;87.97
70072;BME280;57434;42.794;23.302;2022-12-18T04:35:21;96621.84;;;2.34;87.77
70072;BME280;57434;42.794;23.302;2022-12-18T04:36:23;96613.22;;;2.28;87.82
70072;BME280;57434;42.794;23.302;2022-12-18T04:37:25;96706.00;;;2.78;87.90
70072;BME280;57434;42.794;23.302;2022-12-18T04:38:27;96685.78;;;2.81;88.24
70072;BME280;57434;42.794;23.302;2022-12-18T04:39:28;96522.66;;;1.64;87.46
70072;BME280;57434;42.794;23.302;2022-12-18T04:40:30;96662.38;;;2.55;87.18
70072;BME280;57434;42.794;23.302;2022-12-18T04:41:32;96588.97;;;2.05;87.02
70072;BME280;57434;42.794;23.302;2022-12-18T04:42:34;96606.63;;;2.19;86.98
70072;BME280;57434;42.794;23.302;2022-12-18T04:43:36;96702.00;;;2.82;87.13
70072;BME280;57434;42.794;23.302;2022-12-18T04:44:38;96716.78;;;2.68;86.96
70072;BME280;57434;42.794;23.302;2022-12-18T04:45:40;96614.56;;;2.17;86.88
70072;BME280;57434;42.794;23.302;2022-12-18T04:46:42;96709.19;;;2.76;86.91
70072;BME280;57434;42.794;23.302;2022-12-18T04:47:44;96679.53;;;2.43;86.84
70072;BME280;57434;42.794;23.302;2022-12-18T04:48:46;96548.97;;;1.80;87.03
70072;BME280;57434;42.794;23.302;2022-12-18T04:49:48;96578.94;;;1.85;86.87
70072;BME280;57434;42.794;23.302;2022-12-18T04:50:50;96721.81;;;2.81;86.89
70072;BME280;57434;42.794;23.302;2022-12-18T04:51:51;96605.59;;;2.05;86.58
70072;BME280;57434;42.794;23.302;2022-12-18T04:52:54;96770.22;;;2.69;86.65
70072;BME280;57434;42.794;23.302;2022-12-18T04:53:56;96594.63;;;1.98;86.80
70072;BME280;57434;42.794;23.302;2022-12-18T04:54:58;96672.38;;;2.45;86.55
70072;BME280;57434;42.794;23.302;2022-12-18T04:56:08;96713.19;;;2.71;87.00
70072;BME280;57434;42.794;23.302;2022-12-18T04:57:10;96720.16;;;2.53;87.25
70072;BME280;57434;42.794;23.302;2022-12-18T04:58:11;96715.19;;;2.71;87.47
70072;BME280;57434;42.794;23.302;2022-12-18T04:59:13;96725.00;;;2.45;87.19
70072;BME280;57434;42.794;23.302;2022-12-18T05:00:15;96682.38;;;2.35;87.17
70072;BME280;57434;42.794;23.302;2022-12-18T05:01:18;96707.38;;;2.62;87.23
70072;BME280;57434;42.794;23.302;2022-12-18T05:02:20;96741.00;;;2.64;86.44
70072;BME280;57434;42.794;23.302;2022-12-18T05:03:22;96709.38;;;2.58;86.32
70072;BME280;57434;42.794;23.302;2022-12-18T05:04:24;96762.25;;;2.74;86.47
70072;BME280;57434;42.794;23.302;2022-12-18T05:05:25;96733.72;;;2.78;86.13
70072;BME280;57434;42.794;23.302;2022-12-18T05:06:27;96719.59;;;2.65;86.17
70072;BME280;57434;42.794;23.302;2022-12-18T05:07:29;96728.41;;;2.56;85.89
70072;BME280;57434;42.794;23.302;2022-12-18T05:08:32;96614.84;;;1.92;85.80
70072;BME280;57434;42.794;23.302;2022-12-18T05:09:33;96707.22;;;2.43;85.57
70072;BME280;57434;42.794;23.302;2022-12-18T05:10:35;96719.38;;;2.52;85.69
70072;BME280;57434;42.794;23.302;2022-12-18T05:11:39;96729.94;;;2.61;85.53
70072;BME280;57434;42.794;23.302;2022-12-18T05:12:40;96714.22;;;2.54;85.58
70072;BME280;57434;42.794;23.302;2022-12-18T05:13:43;96729.69;;;2.52;85.49
70072;BME280;57434;42.794;23.302;2022-12-18T05:14:45;96748.06;;;2.69;85.58
70072;BME280;57434;42.794;23.302;2022-12-18T05:15:52;96752.84;;;2.65;85.55
70072;BME280;57434;42.794;23.302;2022-12-18T05:16:54;96687.22;;;2.28;85.53
70072;BME280;57434;42.794;23.302;2022-12-18T05:18:02;96753.34;;;2.56;85.73
70072;BME280;57434;42.794;23.302;2022-12-18T05:19:04;96756.78;;;2.67;85.70
70072;BME280;57434;42.794;23.302;2022-12-18T05:20:06;96692.75;;;2.28;85.59
70072;BME280;57434;42.794;23.302;2022-12-18T05:21:08;96719.06;;;2.43;85.51
70072;BME280;57434;42.794;23.302;2022-12-18T05:22:10;96765.47;;;2.69;85.39
70072;BME280;57434;42.794;23.302;2022-12-18T05:23:12;96765.84;;;2.71;85.48
70072;BME280;57434;42.794;23.302;2022-12-18T05:24:13;96756.19;;;2.53;85.47
70072;BME280;57434;42.794;23.302;2022-12-18T05:25:16;96764.69;;;2.69;85.39
70072;BME280;57434;42.794;23.302;2022-12-18T05:26:18;96774.56;;;2.70;85.25
70072;BME280;57434;42.794;23.302;2022-12-18T05:27:20;96781.69;;;2.71;85.08
70072;BME280;57434;42.794;23.302;2022-12-18T05:28:23;96754.91;;;2.57;85.20
70072;BME280;57434;42.794;23.302;2022-12-18T05:29:25;96796.28;;;2.75;85.28
70072;BME280;57434;42.794;23.302;2022-12-18T05:30:26;96768.31;;;2.62;85.09
70072;BME280;57434;42.794;23.302;2022-12-18T05:31:28;96779.66;;;2.75;85.05
70072;BME280;57434;42.794;23.302;2022-12-18T05:32:36;96773.22;;;2.51;84.87
70072;BME280;57434;42.794;23.302;2022-12-18T05:33:38;96764.41;;;2.56;84.90
70072;BME280;57434;42.794;23.302;2022-12-18T05:34:40;96746.38;;;2.45;85.09
70072;BME280;57434;42.794;23.302;2022-12-18T05:35:42;96751.59;;;2.35;85.09
70072;BME280;57434;42.794;23.302;2022-12-18T05:36:45;96786.19;;;2.58;85.12
70072;BME280;57434;42.794;23.302;2022-12-18T05:37:47;96817.06;;;2.56;85.23
70072;BME280;57434;42.794;23.302;2022-12-18T05:38:48;96676.56;;;1.89;85.08
70072;BME280;57434;42.794;23.302;2022-12-18T05:39:50;96748.47;;;2.30;84.91
70072;BME280;57434;42.794;23.302;2022-12-18T05:40:53;96778.94;;;2.30;84.74
70072;BME280;57434;42.794;23.302;2022-12-18T05:41:55;96726.19;;;2.06;84.86
70072;BME280;57434;42.794;23.302;2022-12-18T05:42:57;96791.50;;;2.42;85.04
70072;BME280;57434;42.794;23.302;2022-12-18T05:43:59;96789.06;;;2.47;85.05
70072;BME280;57434;42.794;23.302;2022-12-18T05:45:00;96767.00;;;2.40;85.25
70072;BME280;57434;42.794;23.302;2022-12-18T05:46:15;96792.97;;;2.53;85.35
70072;BME280;57434;42.794;23.302;2022-12-18T05:47:18;96789.78;;;2.55;85.26
70072;BME280;57434;42.794;23.302;2022-12-18T05:48:20;96813.22;;;2.47;84.93
70072;BME280;57434;42.794;23.302;2022-12-18T05:49:22;96657.41;;;1.67;85.01
70072;BME280;57434;42.794;23.302;2022-12-18T05:50:23;96783.22;;;2.38;85.04
70072;BME280;57434;42.794;23.302;2022-12-18T05:51:26;96644.44;;;1.57;84.93
70072;BME280;57434;42.794;23.302;2022-12-18T05:52:28;96779.97;;;2.47;84.74
70072;BME280;57434;42.794;23.302;2022-12-18T05:53:29;96808.69;;;2.63;84.73
70072;BME280;57434;42.794;23.302;2022-12-18T05:54:31;96765.81;;;2.37;84.60
70072;BME280;57434;42.794;23.302;2022-12-18T05:55:38;96748.56;;;2.23;84.47
70072;BME280;57434;42.794;23.302;2022-12-18T05:56:40;96798.59;;;2.46;84.19
70072;BME280;57434;42.794;23.302;2022-12-18T05:57:49;96819.47;;;2.54;84.61
70072;BME280;57434;42.794;23.302;2022-12-18T05:58:52;96789.94;;;2.40;84.44
70072;BME280;57434;42.794;23.302;2022-12-18T05:59:54;96813.31;;;2.36;85.00
70072;BME280;57434;42.794;23.302;2022-12-18T06:00:56;96838.94;;;2.47;84.88
70072;BME280;57434;42.794;23.302;2022-12-18T06:01:58;96806.50;;;2.44;84.81
70072;BME280;57434;42.794;23.302;2022-12-18T06:03:01;96714.16;;;1.83;85.06
70072;BME280;57434;42.794;23.302;2022-12-18T06:04:03;96808.53;;;2.40;84.94
70072;BME280;57434;42.794;23.302;2022-12-18T06:05:06;96680.00;;;1.55;84.45
70072;BME280;57434;42.794;23.302;2022-12-18T06:07:15;96832.91;;;2.56;84.30